Time;durP1;ratioP1;P1;durP2;ratioP2;P2;SDS_P1;SDS_P2;PMS_P1;PMS_P2;Temp;Humidity;BMP_temperature;BMP_pressure;BME280_temperature;BME280_humidity;BME280_pressure;Samples;Min_cycle;Max_cycle;Signal;HPM_P1;HPM_P2
2021/06/25 00:00:55;;;;;;;;;;;;;;;23.72;67.83;100250.02;1774653;80;20089;-66
2021/06/25 00:03:22;;;;;;;;;;;;;;;23.68;68.13;100251.84;1774746;81;20093;-67
2021/06/25 00:05:48;;;;;;;;;;;;;;;23.62;68.24;100252.00;1774908;81;20085;-67
2021/06/25 00:08:15;;;;;;;;;;;;;;;23.58;68.32;100249.38;1775023;80;20124;-67
2021/06/25 00:10:42;;;;;;;;;;;;;;;23.54;68.64;100252.02;1775288;80;21887;-66
2021/06/25 00:13:08;;;;;;;;;;;;;;;23.48;68.98;100249.48;1774854;80;20343;-68
2021/06/25 00:15:37;;;;;;;;;;;;;;;23.44;69.21;100249.97;1774790;80;20120;-68
2021/06/25 00:18:05;;;;;;;;;;;;;;;23.40;69.33;100246.81;1774780;80;20088;-68
2021/06/25 00:20:32;;;;;;;;;;;;;;;23.37;69.47;100241.82;1775029;80;20412;-67
2021/06/25 00:22:59;;;;;;;;;;;;;;;23.34;69.52;100246.63;1774728;81;21140;-67
2021/06/25 00:25:26;;;;;;;;;;;;;;;23.29;69.85;100243.95;1773015;80;20247;-68
2021/06/25 00:27:52;;;;;;;;;;;;;;;23.25;70.04;100244.44;1768844;80;20482;-68
2021/06/25 00:30:20;;;;;;;;;;;;;;;23.19;70.20;100248.58;1768963;81;20449;-66
2021/06/25 00:32:47;;;;;;;;;;;;;;;23.16;70.22;100242.29;1768763;81;20081;-68
2021/06/25 00:35:14;;;;;;;;;;;;;;;23.11;70.41;100241.94;1768811;80;21062;-67
2021/06/25 00:37:42;;;;;;;;;;;;;;;23.06;70.56;100243.41;1768652;80;20767;-68
2021/06/25 00:40:10;;;;;;;;;;;;;;;23.04;70.72;100246.72;1768693;81;20156;-68
2021/06/25 00:42:37;;;;;;;;;;;;;;;23.02;70.68;100240.24;1768682;81;20118;-68
2021/06/25 00:45:14;;;;;;;;;;;;;;;23.00;70.76;100243.55;1768880;80;20069;-68
2021/06/25 00:47:42;;;;;;;;;;;;;;;22.97;70.86;100239.06;1768720;80;21141;-67
2021/06/25 00:50:10;;;;;;;;;;;;;;;22.95;71.24;100236.06;1768758;80;20085;-68
2021/06/25 00:52:37;;;;;;;;;;;;;;;22.94;71.34;100227.77;1768673;81;20120;-67
2021/06/25 00:55:04;;;;;;;;;;;;;;;22.93;71.54;100229.25;1768881;80;20109;-68
2021/06/25 00:57:31;;;;;;;;;;;;;;;22.89;71.70;100229.23;1769080;80;20085;-68
2021/06/25 00:59:58;;;;;;;;;;;;;;;22.83;71.73;100225.89;1768886;81;21244;-67
2021/06/25 01:02:24;;;;;;;;;;;;;;;22.81;71.90;100228.70;1768818;80;20418;-68
2021/06/25 01:04:52;;;;;;;;;;;;;;;22.80;71.99;100231.52;1768825;80;20105;-67
2021/06/25 01:07:18;;;;;;;;;;;;;;;22.77;72.12;100225.20;1768622;80;20109;-68
2021/06/25 01:09:45;;;;;;;;;;;;;;;22.71;72.23;100216.04;1768779;80;20376;-67
2021/06/25 01:12:13;;;;;;;;;;;;;;;22.67;72.31;100208.55;1768724;81;21117;-67
2021/06/25 01:14:40;;;;;;;;;;;;;;;22.62;72.33;100204.55;1768632;80;20129;-67
2021/06/25 01:17:28;;;;;;;;;;;;;;;22.57;72.41;100195.39;1768775;80;20109;-67
2021/06/25 01:19:56;;;;;;;;;;;;;;;22.53;72.37;100196.70;1768793;81;20093;-66
2021/06/25 01:22:34;;;;;;;;;;;;;;;22.46;72.53;100191.69;1768975;80;20109;-67
2021/06/25 01:25:06;;;;;;;;;;;;;;;22.40;72.66;100197.63;1769080;80;20120;-67
2021/06/25 01:27:32;;;;;;;;;;;;;;;22.34;72.94;100205.75;1779852;80;20072;-67
2021/06/25 01:30:00;;;;;;;;;;;;;;;22.30;73.10;100205.72;1780145;80;20116;-67
2021/06/25 01:32:26;;;;;;;;;;;;;;;22.26;73.34;100212.33;1780110;80;20113;-67
2021/06/25 01:34:53;;;;;;;;;;;;;;;22.22;73.43;100218.94;1780455;80;20121;-67
2021/06/25 01:37:20;;;;;;;;;;;;;;;22.18;73.51;100216.25;1780123;80;21140;-67
2021/06/25 01:39:48;;;;;;;;;;;;;;;22.15;73.67;100215.23;1779971;80;20693;-66
2021/06/25 01:42:15;;;;;;;;;;;;;;;22.10;73.78;100214.86;1780051;80;20080;-67
2021/06/25 01:44:42;;;;;;;;;;;;;;;22.04;73.94;100207.03;1780026;80;20709;-67
2021/06/25 01:47:08;;;;;;;;;;;;;;;22.03;74.08;100207.19;1780307;80;20419;-66
2021/06/25 01:49:37;;;;;;;;;;;;;;;22.01;74.18;100211.78;1780133;80;21073;-66
2021/06/25 01:52:04;;;;;;;;;;;;;;;21.96;74.36;100203.83;1780117;80;20116;-66
2021/06/25 01:54:31;;;;;;;;;;;;;;;21.96;74.55;100208.30;1780428;80;20092;-67
2021/06/25 01:56:58;;;;;;;;;;;;;;;21.95;74.60;100204.81;1780142;80;20094;-66
2021/06/25 01:59:25;;;;;;;;;;;;;;;21.95;74.77;100199.51;1780028;80;20117;-66
2021/06/25 02:01:52;;;;;;;;;;;;;;;21.98;74.82;100202.34;1786186;80;21152;-66
2021/06/25 02:04:19;;;;;;;;;;;;;;;22.02;74.77;100206.36;1779977;80;20108;-66
2021/06/25 02:06:46;;;;;;;;;;;;;;;22.06;74.65;100194.95;1780105;80;20088;-67
2021/06/25 02:09:12;;;;;;;;;;;;;;;22.10;74.40;100191.83;1780324;80;20686;-66
2021/06/25 02:11:39;;;;;;;;;;;;;;;22.15;74.26;100180.27;1780006;80;20080;-66
2021/06/25 02:14:06;;;;;;;;;;;;;;;22.19;74.08;100186.92;1780017;80;21227;-67
2021/06/25 02:16:33;;;;;;;;;;;;;;;22.23;74.02;100200.20;1780067;80;20139;-66
2021/06/25 02:19:00;;;;;;;;;;;;;;;22.26;74.12;100202.55;1780061;80;20152;-66
2021/06/25 02:21:27;;;;;;;;;;;;;;;22.28;73.95;100197.09;1780081;80;20359;-66
2021/06/25 02:23:54;;;;;;;;;;;;;;;22.36;73.73;100194.48;1780135;80;20116;-66
2021/06/25 02:26:21;;;;;;;;;;;;;;;22.48;73.31;100194.52;1777869;80;21532;-66
2021/06/25 02:28:48;;;;;;;;;;;;;;;22.66;72.77;100190.96;1774825;81;20120;-66
2021/06/25 02:31:17;;;;;;;;;;;;;;;22.85;71.95;100186.73;1775110;81;20112;-67
2021/06/25 02:33:44;;;;;;;;;;;;;;;23.00;71.20;100185.13;1774812;80;20109;-66
2021/06/25 02:36:10;;;;;;;;;;;;;;;23.21;70.34;100183.32;1775279;80;20422;-66
2021/06/25 02:38:39;;;;;;;;;;;;;;;23.48;69.25;100176.89;1774910;80;20379;-66
2021/06/25 02:41:06;;;;;;;;;;;;;;;23.74;68.04;100176.73;1774966;81;20077;-66
2021/06/25 02:43:33;;;;;;;11.45;4.95;;;;;;;24.05;67.02;100183.50;1772293;80;20081;-66
2021/06/25 02:46:00;;;;;;;12.25;4.55;;;;;;;24.38;65.98;100177.66;1772221;81;21014;-66
2021/06/25 02:48:27;;;;;;;13.70;5.72;;;;;;;24.75;64.75;100184.98;1772528;81;20899;-66
2021/06/25 02:50:54;;;;;;;11.03;5.45;;;;;;;25.10;63.61;100180.48;1772333;81;21975;-66
2021/06/25 02:53:21;;;;;;;16.93;5.67;;;;;;;25.44;62.51;100179.24;1772075;81;20947;-66
2021/06/25 02:55:51;;;;;;;19.10;5.20;;;;;;;25.74;61.54;100176.18;1772252;81;20943;-67
2021/06/25 02:58:23;;;;;;;8.35;4.80;;;;;;;25.97;60.58;100177.48;1772093;81;20896;-67
2021/06/25 03:00:51;;;;;;;15.30;4.95;;;;;;;26.12;59.98;100183.64;1772378;81;20975;-67
2021/06/25 03:03:18;;;;;;;19.40;5.28;;;;;;;26.28;59.31;100184.81;1772145;81;21378;-67
2021/06/25 03:05:47;;;;;;;12.78;4.65;;;;;;;26.54;58.61;100191.04;1772016;81;21426;-66
2021/06/25 03:08:14;;;;;;;15.05;4.75;;;;;;;26.89;57.66;100184.06;1772302;81;20924;-66
2021/06/25 03:10:42;;;;;;;8.90;4.53;;;;;;;27.26;56.35;100183.56;1772149;81;20982;-66
2021/06/25 03:13:10;;;;;;;11.65;5.60;;;;;;;27.60;55.18;100189.56;1772127;81;20852;-66
2021/06/25 03:15:37;;;;;;;25.50;12.88;;;;;;;27.88;54.30;100187.76;1772297;81;21857;-66
2021/06/25 03:18:05;;;;;;;14.63;7.33;;;;;;;28.11;53.60;100194.19;1772167;81;20943;-66
2021/06/25 03:20:33;;;;;;;14.90;5.37;;;;;;;28.37;52.54;100193.57;1772303;81;21453;-66
2021/06/25 03:23:00;;;;;;;14.38;4.97;;;;;;;28.65;51.91;100187.62;1772223;81;20978;-66
2021/06/25 03:25:28;;;;;;;9.65;4.58;;;;;;;28.92;51.28;100195.27;1772245;81;20888;-66
2021/06/25 03:27:55;;;;;;;13.15;5.83;;;;;;;29.23;50.42;100201.94;1772127;80;21150;-65
2021/06/25 03:30:23;;;;;;;13.38;5.25;;;;;;;29.50;49.82;100203.69;1772000;81;21032;-66
2021/06/25 03:32:50;;;;;;;9.73;4.80;;;;;;;29.78;48.88;100200.80;1772167;81;21030;-66
2021/06/25 03:35:17;;;;;;;15.78;5.83;;;;;;;30.03;48.43;100192.43;1772136;81;20986;-66
2021/06/25 03:37:45;;;;;;;12.00;5.33;;;;;;;30.18;47.70;100183.64;1772427;81;21370;-66
2021/06/25 03:40:14;;;;;;;10.15;5.05;;;;;;;30.13;47.78;100188.80;1772136;81;21202;-67
2021/06/25 03:42:42;;;;;;;11.75;4.53;;;;;;;30.29;47.39;100190.23;1772089;81;20998;-66
2021/06/25 03:45:12;;;;;;;9.55;4.78;;;;;;;30.52;46.43;100193.77;1772137;81;20948;-67
2021/06/25 03:47:39;;;;;;;12.65;4.47;;;;;;;30.54;46.40;100194.38;1772341;81;20939;-67
2021/06/25 03:50:10;;;;;;;14.18;4.72;;;;;;;30.66;46.27;100193.23;1772125;81;20884;-67
2021/06/25 03:52:37;;;;;;;10.48;5.10;;;;;;;30.93;45.57;100196.63;1772467;81;21115;-67
2021/06/25 03:55:09;;;;;;;22.27;15.93;;;;;;;31.03;45.32;100195.12;1772123;81;20970;-66
2021/06/25 03:57:39;;;;;;;21.85;13.85;;;;;;;31.19;45.00;100198.39;1772459;81;21572;-67
2021/06/25 04:00:11;;;;;;;16.85;9.98;;;;;;;31.33;45.04;100193.20;1772309;81;20904;-66
2021/06/25 04:02:45;;;;;;;19.77;11.18;;;;;;;31.49;44.47;100198.07;1772393;81;20991;-66
2021/06/25 04:05:13;;;;;;;20.72;11.57;;;;;;;31.58;44.14;100200.80;1772064;81;21134;-66
2021/06/25 04:07:40;;;;;;;34.27;24.70;;;;;;;31.48;44.25;100198.59;1772280;81;20911;-66
2021/06/25 04:10:09;;;;;;;22.17;16.02;;;;;;;31.36;44.50;100199.50;1772120;81;20923;-66
2021/06/25 04:12:37;;;;;;;20.40;11.68;;;;;;;31.40;44.88;100201.54;1772268;81;20931;-66
2021/06/25 04:15:06;;;;;;;13.55;7.87;;;;;;;31.69;44.56;100213.56;1772356;81;20911;-66
2021/06/25 04:17:33;;;;;;;11.12;6.75;;;;;;;32.10;43.65;100218.38;1772270;81;21102;-66
2021/06/25 04:20:00;;;;;;;10.20;5.17;;;;;;;32.57;43.06;100206.61;1772294;81;21531;-67
2021/06/25 04:22:27;;;;;;;11.28;4.78;;;;;;;33.07;41.98;100209.94;1772037;81;20943;-66
2021/06/25 04:24:54;;;;;;;17.12;5.85;;;;;;;33.52;41.16;100209.52;1771975;81;20987;-66
2021/06/25 04:27:21;;;;;;;9.85;4.85;;;;;;;33.92;40.25;100202.95;1768647;80;20896;-65
2021/06/25 04:29:48;;;;;;;13.43;5.03;;;;;;;34.29;39.49;100199.98;1766193;81;21939;-68
2021/06/25 04:32:17;;;;;;;11.65;5.00;;;;;;;34.68;39.15;100199.75;1765955;81;21012;-66
2021/06/25 04:34:45;;;;;;;21.48;5.37;;;;;;;34.99;38.69;100196.59;1766161;81;20900;-66
2021/06/25 04:37:13;;;;;;;15.28;4.97;;;;;;;35.21;38.16;100194.54;1766080;81;21011;-66
2021/06/25 04:39:40;;;;;;;13.05;5.30;;;;;;;35.40;37.84;100191.41;1766048;81;20880;-66
2021/06/25 04:42:09;;;;;;;15.00;5.22;;;;;;;35.59;37.77;100184.41;1766101;81;21139;-67
2021/06/25 04:44:38;;;;;;;12.98;4.83;;;;;;;35.75;37.45;100189.80;1765812;81;21422;-66
2021/06/25 04:47:05;;;;;;;16.15;4.60;;;;;;;35.89;37.06;100198.45;1757212;81;20939;-67
2021/06/25 04:49:40;;;;;;;14.50;4.72;;;;;;;35.99;36.75;100195.08;1757723;81;20939;-67
2021/06/25 04:52:08;;;;;;;15.10;5.35;;;;;;;36.07;36.52;100194.62;1740146;81;22137;-67
2021/06/25 04:54:35;;;;;;;26.75;13.05;;;;;;;36.03;36.64;100190.77;1755308;81;21093;-66
2021/06/25 04:57:02;;;;;;;60.10;32.23;;;;;;;36.04;36.51;100193.23;1747915;81;20943;-66
2021/06/25 04:59:29;;;;;;;30.92;17.05;;;;;;;35.93;36.96;100196.07;1743661;81;20908;-67
2021/06/25 05:01:56;;;;;;;15.78;7.55;;;;;;;35.88;37.16;100197.34;1754884;81;20945;-67
2021/06/25 05:04:23;;;;;;;11.80;5.05;;;;;;;36.02;36.71;100199.44;1753200;81;21018;-69
2021/06/25 05:06:52;;;;;;;15.63;5.45;;;;;;;36.19;35.82;100198.06;1751208;81;39200;-69
2021/06/25 05:09:19;;;;;;;13.25;5.15;;;;;;;36.32;35.87;100199.09;1751804;81;20908;-68
2021/06/25 05:11:46;;;;;;;12.73;4.85;;;;;;;36.37;35.65;100210.55;1756746;81;20915;-68
2021/06/25 05:14:14;;;;;;;12.28;4.58;;;;;;;36.50;35.51;100206.08;1750033;81;21235;-67
2021/06/25 05:16:41;;;;;;;13.85;4.95;;;;;;;36.72;35.03;100200.13;1742914;81;22076;-65
2021/06/25 05:19:10;;;;;;;11.30;4.90;;;;;;;36.95;34.26;100200.40;1736259;81;21024;-69
2021/06/25 05:21:38;;;;;;;12.47;4.90;;;;;;;37.19;34.18;100200.89;1739663;81;21049;-68
2021/06/25 05:24:06;;;;;;;11.85;4.95;;;;;;;37.38;33.50;100202.74;1746438;81;20900;-68
2021/06/25 05:26:33;;;;;;;11.18;4.65;;;;;;;37.42;33.54;100196.26;1750032;80;21526;-69
2021/06/25 05:29:03;;;;;;;11.48;4.83;;;;;;;37.56;33.17;100194.22;1773068;80;21033;-68
2021/06/25 05:31:32;;;;;;;10.18;4.47;;;;;;;37.80;32.73;100193.86;1773234;80;21086;-69
2021/06/25 05:34:02;;;;;;;11.33;5.12;;;;;;;38.03;32.28;100198.89;1766270;80;20962;-69
2021/06/25 05:36:29;;;;;;;11.12;5.10;;;;;;;38.22;31.88;100194.70;1770761;80;21135;-67
2021/06/25 05:38:56;;;;;;;11.33;5.08;;;;;;;38.42;31.47;100202.12;1770466;80;20922;-68
2021/06/25 05:41:24;;;;;;;15.68;5.53;;;;;;;38.60;31.17;100198.97;1773244;80;21324;-66
2021/06/25 05:43:51;;;;;;;12.75;5.70;;;;;;;38.63;31.41;100193.53;1770928;80;21102;-66
2021/06/25 05:46:18;;;;;;;11.48;4.87;;;;;;;38.71;31.31;100194.92;1767893;80;20966;-67
2021/06/25 05:48:47;;;;;;;15.83;5.03;;;;;;;38.85;30.62;100193.31;1743050;81;20861;-66
2021/06/25 05:51:15;;;;;;;9.88;4.78;;;;;;;38.95;30.46;100197.42;1741388;81;21111;-71
2021/06/25 05:53:42;;;;;;;15.75;5.37;;;;;;;38.97;30.22;100193.34;1736863;81;21006;-70
2021/06/25 05:56:09;;;;;;;15.32;5.65;;;;;;;39.11;30.23;100194.23;1740899;81;21050;-67
2021/06/25 05:58:37;;;;;;;16.70;5.30;;;;;;;39.24;30.33;100199.95;1741110;81;21058;-66
2021/06/25 06:01:04;;;;;;;14.00;5.83;;;;;;;39.35;30.17;100203.50;1746319;81;20909;-65
2021/06/25 06:03:31;;;;;;;10.78;5.42;;;;;;;39.40;30.32;100202.14;1742447;81;20998;-68
2021/06/25 06:05:58;;;;;;;13.18;5.40;;;;;;;39.51;30.18;100198.91;1754210;81;21430;-67
2021/06/25 06:08:25;;;;;;;11.15;5.05;;;;;;;39.59;30.08;100197.80;1744792;81;21095;-65
2021/06/25 06:10:53;;;;;;;15.85;5.22;;;;;;;39.70;29.64;100204.61;1775586;80;21045;-66
2021/06/25 06:13:21;;;;;;;9.83;5.30;;;;;;;39.81;29.49;100197.52;1770080;80;20916;-67
2021/06/25 06:15:51;;;;;;;13.60;5.28;;;;;;;39.96;28.96;100191.25;1742563;81;20893;-67
2021/06/25 06:18:26;;;;;;;15.10;5.30;;;;;;;40.06;28.30;100193.94;1745244;81;21240;-67
2021/06/25 06:20:50;;;;;;;11.60;5.10;;;;;;;40.10;28.38;100192.83;1767411;79;21149;-67
2021/06/25 06:31:42;;;;;;;9.40;4.90;;;;;;;40.36;27.80;100186.80;1753234;81;20887;-66
2021/06/25 06:34:10;;;;;;;16.02;4.58;;;;;;;40.33;28.27;100188.71;1752065;81;21811;-69
2021/06/25 06:36:46;;;;;;;12.03;5.03;;;;;;;40.29;28.50;100186.51;1761979;81;20892;-68
2021/06/25 06:39:13;;;;;;;12.03;4.67;;;;;;;40.39;27.81;100187.02;1747588;81;21541;-70
2021/06/25 06:41:40;;;;;;;20.00;5.67;;;;;;;40.53;27.87;100196.80;1758138;81;21443;-67
2021/06/25 06:44:08;;;;;;;15.95;5.12;;;;;;;40.61;27.83;100193.48;1745569;81;20956;-66
2021/06/25 06:46:35;;;;;;;9.93;4.97;;;;;;;40.64;27.69;100196.47;1750059;81;21200;-71
2021/06/25 06:49:04;;;;;;;14.10;4.17;;;;;;;40.72;27.27;100197.80;1747997;81;20951;-68
2021/06/25 06:51:34;;;;;;;14.85;6.12;;;;;;;40.76;26.89;100198.09;1756567;81;20962;-70
2021/06/25 06:54:02;;;;;;;14.73;7.20;;;;;;;40.73;27.32;100201.35;1754815;81;21003;-74
2021/06/25 06:56:31;;;;;;;19.67;8.53;;;;;;;40.47;27.06;100200.09;1757266;81;20959;-69
2021/06/25 06:59:00;;;;;;;11.53;4.83;;;;;;;39.97;27.61;100210.07;1751176;81;21152;-72
2021/06/25 07:01:29;;;;;;;10.20;4.53;;;;;;;39.55;27.84;100209.55;1735586;82;21022;-72
2021/06/25 07:03:59;;;;;;;10.68;3.95;;;;;;;39.40;28.19;100217.13;1743524;81;21434;-71
2021/06/25 07:06:29;;;;;;;10.53;3.77;;;;;;;39.48;27.83;100212.54;1744107;81;20992;-72
2021/06/25 07:08:56;;;;;;;14.03;4.20;;;;;;;39.64;28.31;100220.14;1735522;82;20971;-72
2021/06/25 07:11:23;;;;;;;14.30;4.35;;;;;;;39.75;28.19;100212.78;1735615;82;21485;-70
2021/06/25 07:13:52;;;;;;;11.80;3.77;;;;;;;39.83;28.00;100214.96;1737949;81;20956;-72
2021/06/25 07:16:23;;;;;;;9.25;3.50;;;;;;;39.87;28.16;100216.05;1751814;81;21534;-72
2021/06/25 07:18:51;;;;;;;8.55;3.80;;;;;;;39.98;28.28;100216.34;1763177;81;21115;-73
2021/06/25 07:21:18;;;;;;;15.40;4.28;;;;;;;40.14;28.35;100226.11;1764918;81;20942;-71
2021/06/25 07:23:45;;;;;;;11.40;3.58;;;;;;;40.28;28.37;100226.35;1750208;81;21114;-66
2021/06/25 07:26:13;;;;;;;9.30;4.33;;;;;;;40.42;28.18;100217.03;1744263;81;20991;-71
2021/06/25 07:28:40;;;;;;;11.28;3.70;;;;;;;40.55;28.15;100223.27;1759026;80;20990;-70
2021/06/25 07:31:09;;;;;;;12.78;4.03;;;;;;;40.52;27.85;100222.46;1769574;80;20911;-71
2021/06/25 07:33:37;;;;;;;10.03;4.15;;;;;;;40.38;28.10;100215.98;1775446;80;21438;-72
2021/06/25 07:36:05;;;;;;;8.98;3.83;;;;;;;40.40;28.28;100213.22;1774132;80;21151;-71
2021/06/25 07:38:32;;;;;;;8.35;3.60;;;;;;;40.50;28.75;100209.09;1772858;80;20932;-71
2021/06/25 07:41:00;;;;;;;10.35;4.03;;;;;;;40.67;27.92;100202.47;1772596;80;20882;-71
2021/06/25 07:43:27;;;;;;;10.08;3.65;;;;;;;40.76;27.65;100208.47;1776560;80;20978;-67
2021/06/25 07:45:57;;;;;;;9.23;3.83;;;;;;;40.75;26.94;100197.80;1777407;80;20966;-67
2021/06/25 07:48:24;;;;;;;15.18;4.12;;;;;;;40.57;27.33;100206.06;1773744;80;22952;-69
2021/06/25 07:50:51;;;;;;;10.43;3.27;;;;;;;40.46;27.36;100197.09;1771464;80;21019;-68
2021/06/25 07:53:18;;;;;;;9.50;3.47;;;;;;;40.45;27.24;100200.10;1730929;81;20969;-67
2021/06/25 07:55:46;;;;;;;9.33;3.60;;;;;;;40.53;27.28;100199.52;1755835;81;20936;-69
2021/06/25 07:58:17;;;;;;;7.60;3.55;;;;;;;40.67;27.43;100197.02;1742456;81;21024;-68
2021/06/25 08:00:44;;;;;;;9.63;3.45;;;;;;;40.81;27.29;100188.48;1767839;80;21101;-68
2021/06/25 08:03:11;;;;;;;15.10;4.15;;;;;;;40.89;27.41;100184.61;1739559;81;21491;-70
2021/06/25 08:05:40;;;;;;;11.80;4.22;;;;;;;40.87;26.91;100190.91;1743973;81;21244;-66
2021/06/25 08:08:07;;;;;;;21.07;7.95;;;;;;;40.90;27.06;100186.79;1739736;81;20937;-68
2021/06/25 08:10:34;;;;;;;13.98;5.12;;;;;;;40.91;27.27;100185.14;1722320;81;20934;-67
2021/06/25 08:13:01;;;;;;;13.25;3.92;;;;;;;40.93;27.22;100183.50;1723898;81;21280;-67
2021/06/25 08:15:29;;;;;;;9.63;3.33;;;;;;;40.86;26.76;100182.44;1748072;81;20889;-69
2021/06/25 08:17:56;;;;;;;11.40;3.22;;;;;;;40.80;26.51;100184.93;1741384;81;21057;-66
2021/06/25 08:20:23;;;;;;;9.28;3.30;;;;;;;40.63;25.71;100185.28;1748937;81;21467;-66
2021/06/25 08:22:52;;;;;;;5.75;2.80;;;;;;;40.32;25.88;100185.13;1746201;81;20963;-72
2021/06/25 08:25:19;;;;;;;8.00;3.30;;;;;;;40.05;25.67;100184.11;1743910;81;21764;-67
2021/06/25 08:27:47;;;;;;;11.73;3.30;;;;;;;39.93;26.01;100185.80;1724184;81;21024;-76
2021/06/25 08:30:15;;;;;;;17.55;6.53;;;;;;;39.72;26.51;100179.25;1773071;80;20995;-73
2021/06/25 08:32:43;;;;;;;25.77;6.17;;;;;;;39.58;26.67;100181.74;1774298;80;20983;-74
2021/06/25 08:35:11;;;;;;;7.22;3.12;;;;;;;39.63;26.58;100196.16;1774044;80;21599;-73
2021/06/25 08:37:39;;;;;;;6.33;2.90;;;;;;;39.67;26.10;100194.52;1772615;80;21133;-75
2021/06/25 08:40:09;;;;;;;13.68;4.37;;;;;;;39.65;26.48;100193.98;1773179;80;21402;-77
2021/06/25 08:42:37;;;;;;;10.48;3.62;;;;;;;39.58;25.99;100194.83;1768915;80;20905;-65
2021/06/25 08:45:07;;;;;;;24.47;9.13;;;;;;;39.70;25.93;100199.16;1739458;81;20915;-67
2021/06/25 08:47:42;;;;;;;24.10;10.20;;;;;;;39.65;25.67;100200.79;1769479;80;20955;-65
2021/06/25 08:50:11;;;;;;;14.38;4.58;;;;;;;39.61;25.40;100201.06;1765026;80;21149;-77
2021/06/25 08:52:43;;;;;;;10.28;3.20;;;;;;;39.57;25.03;100198.64;1776278;80;20876;-64
2021/06/25 08:55:11;;;;;;;10.63;3.50;;;;;;;39.38;24.92;100197.51;1744322;80;20943;-72
2021/06/25 08:57:40;;;;;;;14.47;3.80;;;;;;;39.13;25.21;100192.05;1777680;80;20919;-76
2021/06/25 09:00:10;;;;;;;6.05;2.62;;;;;;;38.97;25.98;100185.18;1773505;80;21010;-69
2021/06/25 09:02:38;;;;;;;8.18;3.08;;;;;;;38.78;24.49;100187.33;1759068;80;20964;-68
2021/06/25 09:05:26;;;;;;;15.45;3.00;;;;;;;38.41;24.92;100188.23;1748607;81;20995;-73
2021/06/25 09:07:54;;;;;;;12.15;3.98;;;;;;;38.03;25.57;100190.20;1737414;81;21101;-71
2021/06/25 09:10:36;;;;;;;11.40;4.10;;;;;;;37.90;26.39;100183.88;1775171;80;21107;-70
2021/06/25 09:13:11;;;;;;;8.55;3.12;;;;;;;37.92;26.64;100180.36;1770033;80;20941;-62
2021/06/25 09:15:39;;;;;;;;;;;;;;;37.96;26.61;100183.37;1778956;80;22281;-61
2021/06/25 09:18:13;;;;;;;12.40;3.40;;;;;;;37.89;27.60;100189.58;1772527;80;21622;-64
2021/06/25 09:20:44;;;;;;;11.18;3.52;;;;;;;37.84;27.56;100188.19;1773472;80;20974;-69
2021/06/25 09:23:15;;;;;;;12.33;3.25;;;;;;;37.79;27.82;100179.99;1755266;80;21083;-75
2021/06/25 09:26:02;;;;;;;9.08;3.25;;;;;;;37.78;28.29;100180.53;1761450;80;20990;-68
2021/06/25 09:28:46;;;;;;;5.87;3.27;;;;;;;37.70;28.17;100176.94;1730389;82;21119;-67
2021/06/25 09:31:17;;;;;;;11.10;3.70;;;;;;;37.58;28.91;100172.22;1766331;80;21586;-76
2021/06/25 09:33:56;;;;;;;8.85;2.83;;;;;;;37.47;28.62;100174.57;1768094;80;21575;-74
2021/06/25 09:36:33;;;;;;;8.75;3.20;;;;;;;37.35;29.00;100174.73;1744685;80;20911;-73
2021/06/25 09:39:07;;;;;;;5.85;3.02;;;;;;;37.26;28.74;100173.56;1770226;80;20984;-77
2021/06/25 09:41:38;;;;;;;17.98;3.27;;;;;;;37.15;29.15;100169.93;1772964;80;21528;-64
2021/06/25 09:44:10;;;;;;;10.30;3.15;;;;;;;37.02;29.02;100171.16;1774736;80;20915;-66
2021/06/25 09:46:43;;;;;;;8.93;3.33;;;;;;;36.80;29.35;100170.37;1772982;80;20945;-68
2021/06/25 09:49:11;;;;;;;9.28;3.45;;;;;;;36.56;29.72;100164.92;1770836;80;21489;-74
2021/06/25 09:51:43;;;;;;;11.65;3.12;;;;;;;36.34;30.30;100163.05;1775004;80;21007;-64
2021/06/25 09:54:17;;;;;;;11.90;3.65;;;;;;;36.24;30.53;100156.64;1769124;80;21109;-69
2021/06/25 10:01:59;;;;;;;10.38;3.70;;;;;;;36.06;30.91;100153.14;1776609;80;20945;-70
2021/06/25 10:04:35;;;;;;;8.95;4.40;;;;;;;36.06;30.80;100161.28;1756479;80;20978;-69
2021/06/25 10:07:24;;;;;;;10.48;3.55;;;;;;;36.08;31.07;100148.83;1756807;80;21583;-69
2021/06/25 10:09:53;;;;;;;11.48;4.25;;;;;;;36.06;30.75;100155.86;1737029;80;20934;-69
2021/06/25 10:12:22;;;;;;;8.83;3.98;;;;;;;36.04;30.81;100147.69;1767488;80;21561;-70
2021/06/25 10:14:51;;;;;;;8.20;3.27;;;;;;;36.05;31.02;100152.86;1766922;80;22346;-73
2021/06/25 10:17:19;;;;;;;9.10;3.10;;;;;;;36.09;30.72;100159.42;1776949;80;20993;-70
2021/06/25 10:19:48;;;;;;;17.77;3.22;;;;;;;36.07;30.75;100153.43;1774125;80;22214;-67
2021/06/25 10:22:19;;;;;;;12.05;4.65;;;;;;;36.06;30.59;100153.68;1773813;80;20970;-65
2021/06/25 10:24:50;;;;;;;11.70;3.40;;;;;;;36.03;30.60;100156.89;1771722;80;20927;-69
2021/06/25 10:27:20;;;;;;;10.23;3.45;;;;;;;36.00;29.91;100154.14;1747319;81;21029;-65
2021/06/25 10:29:48;;;;;;;9.05;3.83;;;;;;;35.98;28.80;100154.95;1754334;81;20984;-68
2021/06/25 10:32:17;;;;;;;6.58;3.25;;;;;;;35.97;28.80;100159.27;1734606;81;21126;-64
2021/06/25 10:34:44;;;;;;;9.10;3.08;;;;;;;35.94;29.33;100154.34;1754889;81;20984;-78
2021/06/25 10:37:18;;;;;;;7.83;3.33;;;;;;;35.93;29.06;100154.06;1735005;81;20902;-75
2021/06/25 10:39:46;;;;;;;5.85;3.05;;;;;;;35.94;29.49;100152.99;1771003;80;20947;-78
2021/06/25 10:42:14;;;;;;;10.30;3.83;;;;;;;36.00;30.16;100143.83;1774708;80;20944;-70
2021/06/25 10:44:55;;;;;;;5.58;3.02;;;;;;;36.02;30.55;100139.80;1775608;80;22282;-69
2021/06/25 10:47:32;;;;;;;10.30;3.10;;;;;;;35.99;30.90;100143.02;1771933;80;20931;-75
2021/06/25 10:50:05;;;;;;;12.68;5.08;;;;;;;36.00;31.07;100134.34;1770417;80;20974;-77
2021/06/25 10:52:38;;;;;;;7.25;3.30;;;;;;;36.02;31.23;100136.27;1771641;80;20970;-75
2021/06/25 10:55:16;;;;;;;9.45;3.42;;;;;;;36.05;31.14;100132.53;1771327;80;20938;-76
2021/06/25 10:57:54;;;;;;;7.75;3.33;;;;;;;36.08;31.33;100134.73;1766902;80;21139;-77
2021/06/25 11:00:28;;;;;;;12.33;3.40;;;;;;;36.09;31.34;100129.60;1770175;80;21043;-75
2021/06/25 11:02:55;;;;;;;8.03;3.57;;;;;;;36.12;31.64;100130.17;1751889;80;20995;-79
2021/06/25 11:05:32;;;;;;;5.28;3.12;;;;;;;36.05;31.48;100129.81;1757290;80;21027;-72
2021/06/25 11:08:15;;;;;;;5.50;3.70;;;;;;;35.99;31.34;100125.96;1761556;80;20885;-65
2021/06/25 11:10:51;;;;;;;5.87;2.98;;;;;;;35.97;31.22;100122.68;1739769;81;21512;-75
2021/06/25 11:13:24;;;;;;;9.80;3.65;;;;;;;35.86;31.47;100113.58;1755936;81;20860;-74
2021/06/25 11:15:53;;;;;;;9.33;3.15;;;;;;;35.81;32.34;100120.81;1743751;81;20936;-68
2021/06/25 11:18:25;;;;;;;7.75;3.10;;;;;;;35.76;32.50;100118.28;1755111;81;20974;-75
2021/06/25 11:21:05;;;;;;;8.25;3.47;;;;;;;35.77;32.17;100124.53;1751404;81;21506;-80
2021/06/25 11:23:45;;;;;;;9.20;2.87;;;;;;;35.81;32.66;100120.28;1750988;81;21195;-76
2021/06/25 11:26:25;;;;;;;9.53;3.27;;;;;;;35.85;32.70;100120.07;1740441;81;21486;-71
2021/06/25 11:28:57;;;;;;;7.17;3.00;;;;;;;35.88;32.51;100118.75;1746843;81;20963;-72
2021/06/25 11:31:28;;;;;;;8.43;3.50;;;;;;;35.91;32.51;100120.97;1701644;83;21146;-76
2021/06/25 11:34:00;;;;;;;5.42;3.05;;;;;;;35.96;32.66;100120.50;1683758;84;20988;-70
2021/06/25 11:36:44;;;;;;;13.60;3.58;;;;;;;35.99;32.54;100111.05;1732290;81;21455;-73
2021/06/25 11:39:23;;;;;;;8.15;3.47;;;;;;;36.00;32.59;100105.88;1700853;82;20917;-77
2021/06/25 11:42:12;;;;;;;14.38;3.70;;;;;;;35.98;32.73;100099.92;1710757;82;21479;-77
2021/06/25 11:44:42;;;;;;;5.95;2.95;;;;;;;35.95;32.92;100099.07;1733502;81;20939;-65
2021/06/25 11:47:14;;;;;;;8.75;3.42;;;;;;;35.96;32.73;100095.29;1743792;82;20890;-65
2021/06/25 11:49:47;;;;;;;4.20;2.90;;;;;;;36.06;32.99;100092.69;1757411;81;21077;-73
2021/06/25 11:52:19;;;;;;;5.35;3.35;;;;;;;36.13;32.49;100092.50;1736128;82;21782;-72
2021/06/25 11:54:59;;;;;;;10.78;3.30;;;;;;;36.22;32.17;100092.35;1721532;82;20949;-78
2021/06/25 11:57:28;;;;;;;7.15;3.35;;;;;;;36.29;32.38;100089.77;1713227;81;21033;-72
2021/06/25 12:00:18;;;;;;;10.48;3.50;;;;;;;36.34;32.08;100087.12;1733954;81;21023;-71